sensor_id;sensor_type;location;lat;lon;timestamp;P1;durP1;ratioP1;P2;durP2;ratioP2
4692;SDS011;11710;48.024;16.296;2023-05-21T04:34:07;22.47;;;20.13;;
4692;SDS011;11710;48.024;16.296;2023-05-21T04:36:35;20.93;;;18.73;;
4692;SDS011;11710;48.024;16.296;2023-05-21T04:39:02;20.47;;;18.30;;
4692;SDS011;11710;48.024;16.296;2023-05-21T04:41:30;22.40;;;19.33;;
4692;SDS011;11710;48.024;16.296;2023-05-21T04:43:58;19.73;;;17.60;;
4692;SDS011;11710;48.024;16.296;2023-05-21T04:46:25;17.17;;;15.67;;
4692;SDS011;11710;48.024;16.296;2023-05-21T04:48:52;19.70;;;16.37;;
4692;SDS011;11710;48.024;16.296;2023-05-21T04:51:21;18.30;;;16.50;;
4692;SDS011;11710;48.024;16.296;2023-05-21T04:53:50;18.87;;;17.07;;
4692;SDS011;11710;48.024;16.296;2023-05-21T04:56:18;19.57;;;17.20;;
4692;SDS011;11710;48.024;16.296;2023-05-21T04:58:45;17.53;;;15.73;;
4692;SDS011;11710;48.024;16.296;2023-05-21T05:01:13;17.60;;;16.00;;
4692;SDS011;11710;48.024;16.296;2023-05-21T05:03:41;18.10;;;16.40;;
4692;SDS011;11710;48.024;16.296;2023-05-21T05:06:08;20.33;;;16.50;;
4692;SDS011;11710;48.024;16.296;2023-05-21T05:08:37;17.60;;;15.90;;
4692;SDS011;11710;48.024;16.296;2023-05-21T05:11:04;24.70;;;18.00;;
4692;SDS011;11710;48.024;16.296;2023-05-21T05:13:32;21.00;;;18.80;;
4692;SDS011;11710;48.024;16.296;2023-05-21T05:15:59;20.23;;;18.17;;
4692;SDS011;11710;48.024;16.296;2023-05-21T05:18:27;19.73;;;18.03;;
4692;SDS011;11710;48.024;16.296;2023-05-21T05:20:55;18.40;;;16.77;;
4692;SDS011;11710;48.024;16.296;2023-05-21T05:23:22;18.13;;;16.23;;
4692;SDS011;11710;48.024;16.296;2023-05-21T05:25:51;19.97;;;18.00;;
4692;SDS011;11710;48.024;16.296;2023-05-21T05:28:18;18.37;;;16.57;;
4692;SDS011;11710;48.024;16.296;2023-05-21T05:30:45;21.73;;;15.83;;
4692;SDS011;11710;48.024;16.296;2023-05-21T05:33:13;17.20;;;15.47;;
4692;SDS011;11710;48.024;16.296;2023-05-21T05:35:40;16.37;;;14.60;;
4692;SDS011;11710;48.024;16.296;2023-05-21T05:38:07;16.77;;;14.97;;
4692;SDS011;11710;48.024;16.296;2023-05-21T05:40:34;15.60;;;14.00;;
4692;SDS011;11710;48.024;16.296;2023-05-21T05:43:03;17.17;;;15.37;;
4692;SDS011;11710;48.024;16.296;2023-05-21T05:45:30;16.67;;;14.70;;
4692;SDS011;11710;48.024;16.296;2023-05-21T05:47:57;17.33;;;15.70;;
4692;SDS011;11710;48.024;16.296;2023-05-21T05:50:25;22.43;;;15.50;;
4692;SDS011;11710;48.024;16.296;2023-05-21T05:52:52;18.97;;;15.13;;
4692;SDS011;11710;48.024;16.296;2023-05-21T05:55:19;16.50;;;15.00;;
4692;SDS011;11710;48.024;16.296;2023-05-21T05:57:49;16.33;;;14.73;;
4692;SDS011;11710;48.024;16.296;2023-05-21T06:00:18;16.00;;;14.33;;
4692;SDS011;11710;48.024;16.296;2023-05-21T06:02:45;16.93;;;15.00;;
4692;SDS011;11710;48.024;16.296;2023-05-21T06:05:13;14.87;;;13.33;;
4692;SDS011;11710;48.024;16.296;2023-05-21T06:07:40;18.33;;;14.60;;
4692;SDS011;11710;48.024;16.296;2023-05-21T06:10:08;15.67;;;13.83;;
4692;SDS011;11710;48.024;16.296;2023-05-21T06:12:36;15.87;;;14.13;;
4692;SDS011;11710;48.024;16.296;2023-05-21T06:15:03;16.70;;;14.30;;
4692;SDS011;11710;48.024;16.296;2023-05-21T06:17:33;16.57;;;14.87;;
4692;SDS011;11710;48.024;16.296;2023-05-21T06:20:00;16.93;;;15.13;;
4692;SDS011;11710;48.024;16.296;2023-05-21T06:22:28;15.70;;;14.07;;
4692;SDS011;11710;48.024;16.296;2023-05-21T06:24:55;17.50;;;15.27;;
4692;SDS011;11710;48.024;16.296;2023-05-21T06:27:22;15.23;;;13.63;;
4692;SDS011;11710;48.024;16.296;2023-05-21T06:29:49;16.57;;;14.80;;
4692;SDS011;11710;48.024;16.296;2023-05-21T06:32:16;18.13;;;14.17;;
4692;SDS011;11710;48.024;16.296;2023-05-21T06:34:47;17.63;;;13.83;;
4692;SDS011;11710;48.024;16.296;2023-05-21T06:37:17;16.53;;;14.47;;
4692;SDS011;11710;48.024;16.296;2023-05-21T06:39:46;16.70;;;14.03;;
4692;SDS011;11710;48.024;16.296;2023-05-21T06:42:13;19.60;;;14.90;;
4692;SDS011;11710;48.024;16.296;2023-05-21T06:44:40;16.67;;;14.90;;
4692;SDS011;11710;48.024;16.296;2023-05-21T06:47:07;18.27;;;14.03;;
4692;SDS011;11710;48.024;16.296;2023-05-21T06:49:35;15.60;;;13.33;;
4692;SDS011;11710;48.024;16.296;2023-05-21T06:52:04;17.63;;;14.80;;
4692;SDS011;11710;48.024;16.296;2023-05-21T06:54:31;17.63;;;14.80;;
4692;SDS011;11710;48.024;16.296;2023-05-21T06:56:58;18.23;;;16.10;;
4692;SDS011;11710;48.024;16.296;2023-05-21T06:59:26;17.43;;;14.13;;
4692;SDS011;11710;48.024;16.296;2023-05-21T07:01:53;16.00;;;14.30;;
4692;SDS011;11710;48.024;16.296;2023-05-21T07:04:20;17.63;;;14.27;;
4692;SDS011;11710;48.024;16.296;2023-05-21T07:06:47;18.33;;;14.97;;
4692;SDS011;11710;48.024;16.296;2023-05-21T07:09:17;18.67;;;15.10;;
4692;SDS011;11710;48.024;16.296;2023-05-21T07:11:45;18.23;;;14.67;;
4692;SDS011;11710;48.024;16.296;2023-05-21T07:14:12;17.03;;;14.20;;
4692;SDS011;11710;48.024;16.296;2023-05-21T07:16:39;16.67;;;13.83;;
4692;SDS011;11710;48.024;16.296;2023-05-21T07:19:06;17.73;;;14.20;;
4692;SDS011;11710;48.024;16.296;2023-05-21T07:21:34;17.40;;;14.27;;
4692;SDS011;11710;48.024;16.296;2023-05-21T07:24:01;15.77;;;13.70;;
4692;SDS011;11710;48.024;16.296;2023-05-21T07:26:29;16.70;;;14.13;;
4692;SDS011;11710;48.024;16.296;2023-05-21T07:28:56;16.70;;;14.80;;
4692;SDS011;11710;48.024;16.296;2023-05-21T07:31:24;18.47;;;14.67;;
4692;SDS011;11710;48.024;16.296;2023-05-21T07:33:51;16.90;;;14.73;;
4692;SDS011;11710;48.024;16.296;2023-05-21T07:36:18;17.40;;;14.00;;
4692;SDS011;11710;48.024;16.296;2023-05-21T07:38:45;17.80;;;14.10;;
4692;SDS011;11710;48.024;16.296;2023-05-21T07:41:12;19.70;;;15.10;;
4692;SDS011;11710;48.024;16.296;2023-05-21T07:43:41;18.27;;;14.00;;
4692;SDS011;11710;48.024;16.296;2023-05-21T07:46:08;20.10;;;15.00;;
4692;SDS011;11710;48.024;16.296;2023-05-21T07:48:36;16.33;;;13.70;;
4692;SDS011;11710;48.024;16.296;2023-05-21T07:51:03;17.57;;;14.77;;
4692;SDS011;11710;48.024;16.296;2023-05-21T07:53:30;15.63;;;14.03;;
4692;SDS011;11710;48.024;16.296;2023-05-21T07:55:58;19.43;;;15.50;;
4692;SDS011;11710;48.024;16.296;2023-05-21T07:58:25;21.83;;;14.33;;
4692;SDS011;11710;48.024;16.296;2023-05-21T08:00:54;18.37;;;15.00;;
4692;SDS011;11710;48.024;16.296;2023-05-21T08:03:22;16.43;;;14.73;;
4692;SDS011;11710;48.024;16.296;2023-05-21T08:05:51;18.93;;;15.77;;
4692;SDS011;11710;48.024;16.296;2023-05-21T08:08:19;22.57;;;16.20;;
4692;SDS011;11710;48.024;16.296;2023-05-21T08:10:47;16.20;;;14.23;;
4692;SDS011;11710;48.024;16.296;2023-05-21T08:13:15;16.93;;;15.10;;
4692;SDS011;11710;48.024;16.296;2023-05-21T08:15:43;18.77;;;14.90;;
4692;SDS011;11710;48.024;16.296;2023-05-21T08:18:11;19.40;;;16.27;;
4692;SDS011;11710;48.024;16.296;2023-05-21T08:20:38;15.70;;;14.00;;
4692;SDS011;11710;48.024;16.296;2023-05-21T08:23:06;15.80;;;14.03;;
4692;SDS011;11710;48.024;16.296;2023-05-21T08:25:33;19.77;;;14.30;;
4692;SDS011;11710;48.024;16.296;2023-05-21T08:28:01;16.60;;;14.10;;
4692;SDS011;11710;48.024;16.296;2023-05-21T08:30:28;15.50;;;13.90;;
4692;SDS011;11710;48.024;16.296;2023-05-21T08:32:55;16.20;;;14.50;;
4692;SDS011;11710;48.024;16.296;2023-05-21T08:35:24;17.87;;;14.83;;
4692;SDS011;11710;48.024;16.296;2023-05-21T08:37:51;19.63;;;13.97;;
4692;SDS011;11710;48.024;16.296;2023-05-21T08:40:18;17.53;;;14.47;;
4692;SDS011;11710;48.024;16.296;2023-05-21T08:42:46;16.30;;;14.57;;
4692;SDS011;11710;48.024;16.296;2023-05-21T08:45:17;15.73;;;14.00;;
4692;SDS011;11710;48.024;16.296;2023-05-21T08:47:46;17.33;;;14.40;;
4692;SDS011;11710;48.024;16.296;2023-05-21T08:50:17;21.13;;;14.20;;
4692;SDS011;11710;48.024;16.296;2023-05-21T08:52:47;18.90;;;15.17;;
4692;SDS011;11710;48.024;16.296;2023-05-21T08:55:16;15.40;;;13.87;;
4692;SDS011;11710;48.024;16.296;2023-05-21T08:57:44;16.67;;;14.50;;
4692;SDS011;11710;48.024;16.296;2023-05-21T09:00:12;17.77;;;14.37;;
4692;SDS011;11710;48.024;16.296;2023-05-21T09:02:40;19.20;;;14.77;;
4692;SDS011;11710;48.024;16.296;2023-05-21T09:05:08;17.83;;;15.00;;
4692;SDS011;11710;48.024;16.296;2023-05-21T09:07:38;17.13;;;14.80;;
4692;SDS011;11710;48.024;16.296;2023-05-21T09:10:12;16.07;;;13.90;;
4692;SDS011;11710;48.024;16.296;2023-05-21T09:12:41;19.37;;;14.30;;
4692;SDS011;11710;48.024;16.296;2023-05-21T09:15:08;15.17;;;13.60;;
4692;SDS011;11710;48.024;16.296;2023-05-21T09:17:36;17.00;;;13.63;;
4692;SDS011;11710;48.024;16.296;2023-05-21T09:20:05;16.47;;;14.77;;
4692;SDS011;11710;48.024;16.296;2023-05-21T09:22:41;15.57;;;13.97;;
4692;SDS011;11710;48.024;16.296;2023-05-21T09:25:09;14.83;;;12.87;;
4692;SDS011;11710;48.024;16.296;2023-05-21T09:27:41;17.53;;;13.07;;
4692;SDS011;11710;48.024;16.296;2023-05-21T09:30:09;14.17;;;12.77;;
4692;SDS011;11710;48.024;16.296;2023-05-21T09:32:38;16.57;;;13.17;;
4692;SDS011;11710;48.024;16.296;2023-05-21T09:35:09;14.63;;;13.17;;
4692;SDS011;11710;48.024;16.296;2023-05-21T09:37:37;19.40;;;13.10;;
4692;SDS011;11710;48.024;16.296;2023-05-21T09:40:13;14.27;;;12.50;;
4692;SDS011;11710;48.024;16.296;2023-05-21T09:42:42;17.63;;;13.03;;
4692;SDS011;11710;48.024;16.296;2023-05-21T09:45:11;15.00;;;13.00;;
4692;SDS011;11710;48.024;16.296;2023-05-21T09:47:43;15.53;;;13.43;;
4692;SDS011;11710;48.024;16.296;2023-05-21T09:50:12;14.93;;;12.63;;
4692;SDS011;11710;48.024;16.296;2023-05-21T09:52:43;13.50;;;12.10;;
4692;SDS011;11710;48.024;16.296;2023-05-21T09:55:11;15.77;;;12.13;;
4692;SDS011;11710;48.024;16.296;2023-05-21T09:57:41;13.20;;;11.80;;
4692;SDS011;11710;48.024;16.296;2023-05-21T10:00:16;12.70;;;11.40;;
4692;SDS011;11710;48.024;16.296;2023-05-21T10:02:45;16.50;;;12.30;;
4692;SDS011;11710;48.024;16.296;2023-05-21T10:05:15;13.77;;;12.37;;
4692;SDS011;11710;48.024;16.296;2023-05-21T10:07:44;13.50;;;12.17;;
4692;SDS011;11710;48.024;16.296;2023-05-21T10:10:17;14.23;;;12.17;;
4692;SDS011;11710;48.024;16.296;2023-05-21T10:12:47;13.87;;;12.40;;
4692;SDS011;11710;48.024;16.296;2023-05-21T10:15:18;14.47;;;12.40;;
4692;SDS011;11710;48.024;16.296;2023-05-21T10:17:49;12.70;;;11.40;;
4692;SDS011;11710;48.024;16.296;2023-05-21T10:20:19;14.07;;;12.10;;
4692;SDS011;11710;48.024;16.296;2023-05-21T10:22:48;13.47;;;11.93;;
4692;SDS011;11710;48.024;16.296;2023-05-21T10:25:18;13.33;;;11.93;;
4692;SDS011;11710;48.024;16.296;2023-05-21T10:27:46;14.30;;;11.70;;
4692;SDS011;11710;48.024;16.296;2023-05-21T10:30:14;13.30;;;11.83;;
4692;SDS011;11710;48.024;16.296;2023-05-21T10:32:43;15.57;;;11.37;;
4692;SDS011;11710;48.024;16.296;2023-05-21T10:35:13;12.43;;;11.07;;
4692;SDS011;11710;48.024;16.296;2023-05-21T10:37:42;14.93;;;12.30;;
4692;SDS011;11710;48.024;16.296;2023-05-21T10:40:10;13.67;;;11.97;;
4692;SDS011;11710;48.024;16.296;2023-05-21T10:43:05;15.60;;;12.67;;
4692;SDS011;11710;48.024;16.296;2023-05-21T10:45:49;13.63;;;12.23;;
4692;SDS011;11710;48.024;16.296;2023-05-21T10:48:34;17.63;;;11.10;;
4692;SDS011;11710;48.024;16.296;2023-05-21T10:51:19;12.83;;;11.53;;
4692;SDS011;11710;48.024;16.296;2023-05-21T10:57:01;12.80;;;11.33;;
4692;SDS011;11710;48.024;16.296;2023-05-21T10:59:40;12.57;;;11.27;;
4692;SDS011;11710;48.024;16.296;2023-05-21T11:02:10;12.83;;;11.47;;
4692;SDS011;11710;48.024;16.296;2023-05-21T11:04:39;13.53;;;12.20;;
4692;SDS011;11710;48.024;16.296;2023-05-21T11:07:08;12.50;;;11.20;;
4692;SDS011;11710;48.024;16.296;2023-05-21T11:09:37;12.43;;;11.13;;
4692;SDS011;11710;48.024;16.296;2023-05-21T11:12:05;14.43;;;11.40;;
4692;SDS011;11710;48.024;16.296;2023-05-21T11:14:34;19.00;;;11.67;;
4692;SDS011;11710;48.024;16.296;2023-05-21T11:17:10;12.67;;;11.17;;
4692;SDS011;11710;48.024;16.296;2023-05-21T11:19:39;12.63;;;11.07;;
4692;SDS011;11710;48.024;16.296;2023-05-21T11:22:07;12.93;;;11.33;;
4692;SDS011;11710;48.024;16.296;2023-05-21T11:24:45;13.17;;;11.43;;
4692;SDS011;11710;48.024;16.296;2023-05-21T11:27:27;14.77;;;11.93;;
4692;SDS011;11710;48.024;16.296;2023-05-21T11:29:57;12.53;;;11.37;;
4692;SDS011;11710;48.024;16.296;2023-05-21T11:32:26;12.40;;;11.20;;
4692;SDS011;11710;48.024;16.296;2023-05-21T11:34:55;12.47;;;11.27;;
4692;SDS011;11710;48.024;16.296;2023-05-21T11:37:27;12.53;;;10.40;;
4692;SDS011;11710;48.024;16.296;2023-05-21T11:39:57;12.20;;;11.10;;
4692;SDS011;11710;48.024;16.296;2023-05-21T11:42:41;12.53;;;11.30;;
4692;SDS011;11710;48.024;16.296;2023-05-21T11:45:09;12.10;;;10.60;;
4692;SDS011;11710;48.024;16.296;2023-05-21T11:47:38;13.70;;;10.97;;
4692;SDS011;11710;48.024;16.296;2023-05-21T11:50:10;12.23;;;11.03;;
4692;SDS011;11710;48.024;16.296;2023-05-21T11:52:39;12.10;;;10.10;;
4692;SDS011;11710;48.024;16.296;2023-05-21T11:55:07;12.63;;;11.40;;
4692;SDS011;11710;48.024;16.296;2023-05-21T11:57:35;14.00;;;11.03;;
4692;SDS011;11710;48.024;16.296;2023-05-21T12:00:04;12.33;;;9.70;;
4692;SDS011;11710;48.024;16.296;2023-05-21T12:02:42;11.67;;;9.93;;
4692;SDS011;11710;48.024;16.296;2023-05-21T12:05:10;11.37;;;10.27;;
4692;SDS011;11710;48.024;16.296;2023-05-21T12:07:38;13.77;;;10.30;;
4692;SDS011;11710;48.024;16.296;2023-05-21T12:10:06;11.77;;;10.53;;
4692;SDS011;11710;48.024;16.296;2023-05-21T12:12:34;12.57;;;11.27;;
4692;SDS011;11710;48.024;16.296;2023-05-21T12:15:01;11.70;;;10.50;;
4692;SDS011;11710;48.024;16.296;2023-05-21T12:17:29;10.87;;;9.63;;
4692;SDS011;11710;48.024;16.296;2023-05-21T12:19:58;13.27;;;10.97;;
4692;SDS011;11710;48.024;16.296;2023-05-21T12:22:32;10.60;;;9.50;;
4692;SDS011;11710;48.024;16.296;2023-05-21T12:24:59;11.93;;;10.50;;
4692;SDS011;11710;48.024;16.296;2023-05-21T12:27:26;11.73;;;10.53;;
4692;SDS011;11710;48.024;16.296;2023-05-21T12:29:54;11.60;;;10.40;;
4692;SDS011;11710;48.024;16.296;2023-05-21T12:32:22;11.50;;;10.30;;
4692;SDS011;11710;48.024;16.296;2023-05-21T12:34:54;11.50;;;10.07;;
4692;SDS011;11710;48.024;16.296;2023-05-21T12:37:24;11.43;;;10.10;;
4692;SDS011;11710;48.024;16.296;2023-05-21T12:39:52;12.33;;;10.97;;
4692;SDS011;11710;48.024;16.296;2023-05-21T12:42:24;12.10;;;10.07;;
4692;SDS011;11710;48.024;16.296;2023-05-21T12:44:52;10.93;;;9.57;;
4692;SDS011;11710;48.024;16.296;2023-05-21T12:47:21;11.13;;;9.93;;
4692;SDS011;11710;48.024;16.296;2023-05-21T12:49:52;12.90;;;10.37;;
4692;SDS011;11710;48.024;16.296;2023-05-21T12:52:22;12.20;;;10.03;;
4692;SDS011;11710;48.024;16.296;2023-05-21T12:54:52;13.83;;;9.70;;
4692;SDS011;11710;48.024;16.296;2023-05-21T12:57:21;11.83;;;10.60;;
4692;SDS011;11710;48.024;16.296;2023-05-21T12:59:52;12.37;;;10.20;;
4692;SDS011;11710;48.024;16.296;2023-05-21T13:02:22;11.57;;;9.67;;
4692;SDS011;11710;48.024;16.296;2023-05-21T13:04:53;11.37;;;10.17;;
4692;SDS011;11710;48.024;16.296;2023-05-21T13:07:21;10.83;;;9.80;;
4692;SDS011;11710;48.024;16.296;2023-05-21T13:09:51;10.33;;;9.23;;
4692;SDS011;11710;48.024;16.296;2023-05-21T13:12:20;12.80;;;10.17;;
4692;SDS011;11710;48.024;16.296;2023-05-21T13:14:48;11.00;;;9.60;;
4692;SDS011;11710;48.024;16.296;2023-05-21T13:17:16;11.10;;;9.83;;
4692;SDS011;11710;48.024;16.296;2023-05-21T13:19:45;12.63;;;10.03;;
4692;SDS011;11710;48.024;16.296;2023-05-21T13:22:27;11.07;;;9.73;;
4692;SDS011;11710;48.024;16.296;2023-05-21T13:24:56;16.00;;;10.40;;
4692;SDS011;11710;48.024;16.296;2023-05-21T13:27:23;12.10;;;10.03;;
4692;SDS011;11710;48.024;16.296;2023-05-21T13:29:50;12.50;;;9.43;;
4692;SDS011;11710;48.024;16.296;2023-05-21T13:32:17;10.90;;;9.20;;
4692;SDS011;11710;48.024;16.296;2023-05-21T13:34:44;10.70;;;9.40;;
4692;SDS011;11710;48.024;16.296;2023-05-21T13:37:12;10.77;;;9.77;;
4692;SDS011;11710;48.024;16.296;2023-05-21T13:39:39;13.23;;;9.90;;
4692;SDS011;11710;48.024;16.296;2023-05-21T13:42:08;11.67;;;10.47;;
4692;SDS011;11710;48.024;16.296;2023-05-21T13:44:35;11.27;;;9.27;;
4692;SDS011;11710;48.024;16.296;2023-05-21T13:47:03;9.20;;;8.40;;
4692;SDS011;11710;48.024;16.296;2023-05-21T13:49:32;10.87;;;9.23;;
4692;SDS011;11710;48.024;16.296;2023-05-21T13:51:59;12.37;;;9.47;;
4692;SDS011;11710;48.024;16.296;2023-05-21T13:54:27;11.20;;;9.37;;
4692;SDS011;11710;48.024;16.296;2023-05-21T13:56:54;10.77;;;9.67;;
4692;SDS011;11710;48.024;16.296;2023-05-21T13:59:23;9.87;;;8.13;;
4692;SDS011;11710;48.024;16.296;2023-05-21T14:01:50;10.33;;;9.23;;
4692;SDS011;11710;48.024;16.296;2023-05-21T14:04:18;10.07;;;9.07;;
4692;SDS011;11710;48.024;16.296;2023-05-21T14:06:45;10.40;;;9.40;;
4692;SDS011;11710;48.024;16.296;2023-05-21T14:09:13;11.40;;;9.83;;
4692;SDS011;11710;48.024;16.296;2023-05-21T14:11:41;11.00;;;9.80;;
4692;SDS011;11710;48.024;16.296;2023-05-21T14:14:08;10.50;;;9.27;;
4692;SDS011;11710;48.024;16.296;2023-05-21T14:16:37;10.80;;;9.50;;
4692;SDS011;11710;48.024;16.296;2023-05-21T14:19:04;10.43;;;9.40;;
4692;SDS011;11710;48.024;16.296;2023-05-21T14:21:31;10.33;;;9.33;;
4692;SDS011;11710;48.024;16.296;2023-05-21T14:23:58;9.57;;;8.70;;
4692;SDS011;11710;48.024;16.296;2023-05-21T14:26:25;10.37;;;9.30;;
4692;SDS011;11710;48.024;16.296;2023-05-21T14:28:53;10.93;;;8.93;;
4692;SDS011;11710;48.024;16.296;2023-05-21T14:31:20;10.10;;;8.67;;
4692;SDS011;11710;48.024;16.296;2023-05-21T14:33:50;10.90;;;9.47;;
4692;SDS011;11710;48.024;16.296;2023-05-21T14:36:18;20.53;;;9.60;;
4692;SDS011;11710;48.024;16.296;2023-05-21T14:38:45;9.20;;;8.23;;
4692;SDS011;11710;48.024;16.296;2023-05-21T14:41:12;10.13;;;8.87;;
4692;SDS011;11710;48.024;16.296;2023-05-21T14:43:40;9.70;;;8.80;;
4692;SDS011;11710;48.024;16.296;2023-05-21T14:46:07;10.07;;;9.07;;
4692;SDS011;11710;48.024;16.296;2023-05-21T14:48:34;10.20;;;9.10;;
4692;SDS011;11710;48.024;16.296;2023-05-21T14:51:03;9.97;;;9.07;;
4692;SDS011;11710;48.024;16.296;2023-05-21T14:53:31;11.93;;;8.90;;
4692;SDS011;11710;48.024;16.296;2023-05-21T14:55:59;10.30;;;9.30;;
4692;SDS011;11710;48.024;16.296;2023-05-21T14:58:26;9.10;;;8.17;;
4692;SDS011;11710;48.024;16.296;2023-05-21T15:00:53;11.97;;;9.43;;
4692;SDS011;11710;48.024;16.296;2023-05-21T15:03:21;11.37;;;9.17;;
4692;SDS011;11710;48.024;16.296;2023-05-21T15:05:48;10.33;;;9.00;;
4692;SDS011;11710;48.024;16.296;2023-05-21T15:08:17;12.40;;;9.30;;
4692;SDS011;11710;48.024;16.296;2023-05-21T15:10:44;9.77;;;8.77;;
4692;SDS011;11710;48.024;16.296;2023-05-21T15:13:11;10.40;;;8.73;;
4692;SDS011;11710;48.024;16.296;2023-05-21T15:15:38;9.20;;;8.13;;
4692;SDS011;11710;48.024;16.296;2023-05-21T15:18:06;9.47;;;8.40;;
4692;SDS011;11710;48.024;16.296;2023-05-21T15:20:33;10.30;;;8.40;;
4692;SDS011;11710;48.024;16.296;2023-05-21T15:23:00;10.03;;;8.93;;
4692;SDS011;11710;48.024;16.296;2023-05-21T15:25:29;9.63;;;8.20;;
4692;SDS011;11710;48.024;16.296;2023-05-21T15:27:56;10.23;;;8.20;;
4692;SDS011;11710;48.024;16.296;2023-05-21T15:30:23;10.47;;;8.90;;
4692;SDS011;11710;48.024;16.296;2023-05-21T15:32:51;9.27;;;8.37;;
4692;SDS011;11710;48.024;16.296;2023-05-21T15:35:18;9.53;;;8.60;;
4692;SDS011;11710;48.024;16.296;2023-05-21T15:37:46;9.40;;;8.50;;
4692;SDS011;11710;48.024;16.296;2023-05-21T15:40:13;10.20;;;9.20;;
4692;SDS011;11710;48.024;16.296;2023-05-21T15:42:41;9.70;;;8.70;;
4692;SDS011;11710;48.024;16.296;2023-05-21T15:45:09;10.37;;;9.10;;
4692;SDS011;11710;48.024;16.296;2023-05-21T15:47:36;10.37;;;9.27;;
4692;SDS011;11710;48.024;16.296;2023-05-21T15:50:07;9.40;;;8.40;;
4692;SDS011;11710;48.024;16.296;2023-05-21T15:52:35;11.63;;;8.50;;
4692;SDS011;11710;48.024;16.296;2023-05-21T15:55:02;10.83;;;8.87;;
4692;SDS011;11710;48.024;16.296;2023-05-21T15:57:30;9.20;;;8.30;;
4692;SDS011;11710;48.024;16.296;2023-05-21T15:59:59;9.60;;;8.70;;
4692;SDS011;11710;48.024;16.296;2023-05-21T16:02:26;10.43;;;8.90;;
4692;SDS011;11710;48.024;16.296;2023-05-21T16:04:53;9.80;;;8.50;;
4692;SDS011;11710;48.024;16.296;2023-05-21T16:07:21;10.27;;;8.77;;
4692;SDS011;11710;48.024;16.296;2023-05-21T16:09:49;10.40;;;9.27;;
4692;SDS011;11710;48.024;16.296;2023-05-21T16:12:16;11.07;;;9.07;;
4692;SDS011;11710;48.024;16.296;2023-05-21T16:14:43;10.37;;;9.27;;
4692;SDS011;11710;48.024;16.296;2023-05-21T16:17:15;9.67;;;8.67;;
4692;SDS011;11710;48.024;16.296;2023-05-21T16:19:42;10.60;;;9.50;;
4692;SDS011;11710;48.024;16.296;2023-05-21T16:22:09;13.33;;;8.70;;
4692;SDS011;11710;48.024;16.296;2023-05-21T16:24:37;10.20;;;9.10;;
4692;SDS011;11710;48.024;16.296;2023-05-21T16:27:04;10.70;;;8.77;;
4692;SDS011;11710;48.024;16.296;2023-05-21T16:29:31;9.47;;;8.50;;
4692;SDS011;11710;48.024;16.296;2023-05-21T16:31:58;10.60;;;9.20;;
4692;SDS011;11710;48.024;16.296;2023-05-21T16:34:27;11.53;;;10.13;;
4692;SDS011;11710;48.024;16.296;2023-05-21T16:36:54;11.83;;;8.83;;
4692;SDS011;11710;48.024;16.296;2023-05-21T16:39:22;12.03;;;8.67;;
4692;SDS011;11710;48.024;16.296;2023-05-21T16:41:50;9.90;;;8.90;;
4692;SDS011;11710;48.024;16.296;2023-05-21T16:44:18;11.87;;;9.60;;
4692;SDS011;11710;48.024;16.296;2023-05-21T16:46:45;10.20;;;9.20;;
4692;SDS011;11710;48.024;16.296;2023-05-21T16:49:12;14.20;;;9.60;;
4692;SDS011;11710;48.024;16.296;2023-05-21T16:51:41;11.73;;;9.50;;
4692;SDS011;11710;48.024;16.296;2023-05-21T16:54:08;10.90;;;9.23;;
4692;SDS011;11710;48.024;16.296;2023-05-21T16:56:35;12.40;;;10.30;;
4692;SDS011;11710;48.024;16.296;2023-05-21T16:59:03;10.40;;;9.40;;
4692;SDS011;11710;48.024;16.296;2023-05-21T17:01:30;11.03;;;9.37;;
4692;SDS011;11710;48.024;16.296;2023-05-21T17:03:57;11.30;;;10.10;;
4692;SDS011;11710;48.024;16.296;2023-05-21T17:06:24;11.37;;;9.43;;
4692;SDS011;11710;48.024;16.296;2023-05-21T17:08:53;11.27;;;9.30;;
4692;SDS011;11710;48.024;16.296;2023-05-21T17:11:20;10.80;;;9.17;;
4692;SDS011;11710;48.024;16.296;2023-05-21T17:13:47;10.23;;;8.93;;
4692;SDS011;11710;48.024;16.296;2023-05-21T17:16:14;11.63;;;9.77;;
4692;SDS011;11710;48.024;16.296;2023-05-21T17:18:42;10.17;;;9.23;;
4692;SDS011;11710;48.024;16.296;2023-05-21T17:21:10;12.67;;;9.37;;
4692;SDS011;11710;48.024;16.296;2023-05-21T17:23:37;9.90;;;8.90;;
4692;SDS011;11710;48.024;16.296;2023-05-21T17:26:08;12.00;;;9.20;;
4692;SDS011;11710;48.024;16.296;2023-05-21T17:28:37;10.77;;;9.67;;
4692;SDS011;11710;48.024;16.296;2023-05-21T17:31:05;13.60;;;9.87;;
4692;SDS011;11710;48.024;16.296;2023-05-21T17:33:34;10.40;;;9.03;;
4692;SDS011;11710;48.024;16.296;2023-05-21T17:36:02;11.47;;;10.27;;
4692;SDS011;11710;48.024;16.296;2023-05-21T17:38:29;11.10;;;9.13;;
4692;SDS011;11710;48.024;16.296;2023-05-21T17:40:56;12.87;;;9.87;;
4692;SDS011;11710;48.024;16.296;2023-05-21T17:43:25;10.57;;;9.53;;
4692;SDS011;11710;48.024;16.296;2023-05-21T17:45:52;11.63;;;10.17;;
4692;SDS011;11710;48.024;16.296;2023-05-21T17:48:19;10.93;;;9.83;;
4692;SDS011;11710;48.024;16.296;2023-05-21T17:50:47;12.10;;;10.87;;
4692;SDS011;11710;48.024;16.296;2023-05-21T17:53:15;11.87;;;10.67;;
4692;SDS011;11710;48.024;16.296;2023-05-21T17:55:42;14.30;;;12.90;;
4692;SDS011;11710;48.024;16.296;2023-05-21T17:58:09;16.90;;;11.67;;
4692;SDS011;11710;48.024;16.296;2023-05-21T18:00:38;11.13;;;10.00;;
4692;SDS011;11710;48.024;16.296;2023-05-21T18:03:05;12.00;;;10.80;;
4692;SDS011;11710;48.024;16.296;2023-05-21T18:05:33;11.83;;;10.33;;
4692;SDS011;11710;48.024;16.296;2023-05-21T18:08:04;16.60;;;10.10;;
4692;SDS011;11710;48.024;16.296;2023-05-21T18:10:34;10.97;;;10.00;;
4692;SDS011;11710;48.024;16.296;2023-05-21T18:13:06;10.73;;;9.17;;
4692;SDS011;11710;48.024;16.296;2023-05-21T18:15:39;10.53;;;9.37;;
4692;SDS011;11710;48.024;16.296;2023-05-21T18:18:10;10.37;;;9.33;;
4692;SDS011;11710;48.024;16.296;2023-05-21T18:20:41;9.93;;;9.03;;
4692;SDS011;11710;48.024;16.296;2023-05-21T18:23:10;11.10;;;9.70;;
4692;SDS011;11710;48.024;16.296;2023-05-21T18:25:38;12.37;;;9.53;;
4692;SDS011;11710;48.024;16.296;2023-05-21T18:28:05;10.97;;;9.00;;
4692;SDS011;11710;48.024;16.296;2023-05-21T18:30:33;10.50;;;9.40;;
4692;SDS011;11710;48.024;16.296;2023-05-21T18:33:03;14.83;;;10.17;;
4692;SDS011;11710;48.024;16.296;2023-05-21T18:35:32;14.77;;;11.40;;
4692;SDS011;11710;48.024;16.296;2023-05-21T18:37:59;13.53;;;12.13;;
4692;SDS011;11710;48.024;16.296;2023-05-21T18:40:28;15.67;;;13.73;;
4692;SDS011;11710;48.024;16.296;2023-05-21T18:42:57;20.53;;;17.13;;
4692;SDS011;11710;48.024;16.296;2023-05-21T18:45:24;18.23;;;16.33;;
4692;SDS011;11710;48.024;16.296;2023-05-21T18:47:52;16.23;;;14.50;;
4692;SDS011;11710;48.024;16.296;2023-05-21T18:50:20;19.13;;;15.97;;
4692;SDS011;11710;48.024;16.296;2023-05-21T18:52:49;18.33;;;16.13;;
4692;SDS011;11710;48.024;16.296;2023-05-21T18:55:18;16.20;;;14.50;;
4692;SDS011;11710;48.024;16.296;2023-05-21T18:57:45;18.40;;;14.60;;
4692;SDS011;11710;48.024;16.296;2023-05-21T19:00:12;16.07;;;14.37;;
4692;SDS011;11710;48.024;16.296;2023-05-21T19:02:40;21.53;;;19.23;;
4692;SDS011;11710;48.024;16.296;2023-05-21T19:05:08;16.40;;;14.70;;
4692;SDS011;11710;48.024;16.296;2023-05-21T19:07:36;18.13;;;13.00;;
4692;SDS011;11710;48.024;16.296;2023-05-21T19:10:05;14.83;;;13.30;;